Impacts METAR Board
IDs:

KLAS - Las Vegas/McCarran I, NV, US

Updated at: 1100 UTC 21 Sep 2018
Potential Impact None Slight Moderate High
Time 20/23Z 21/00Z 21/01Z 21/02Z 21/03Z 21/04Z 21/05Z 21/06Z 21/07Z 21/08Z 21/09Z 21/10Z 21/11Z
Temp93 95 94 91 90 83 83 82 79 77 77 76 74
Dewpt27 24 25 25 25 33 29 26 26 25 24 27 33
Altim29.86 29.85 29.85 29.85 29.88 29.90 29.91 29.92 29.92 29.93 29.94 29.94 29.95
VIS10 10 10 10 10 10 10 10 10 10 10 10 10
CIG-- -- -- -- -- -- -- -- -- -- -- -- --
CoverFEWCLRCLRCLRCLRCLRCLRCLRCLRCLRCLRCLRCLR
FltCatVFRVFRVFRVFRVFRVFRVFRVFRVFRVFRVFRVFRVFR
WX--------------------------
WDir050204040280250033021021023020
WSpd4 3 6 6 5 6 3 0 4 5 5 3 4
WGst-- -- -- -- -- -- -- -- -- -- -- -- --
Raw hourly METARs
KLAS 202256Z VRB04KT 10SM FEW120 34/M03 A2986 RMK AO2 SLP085 T03391028
KLAS 202356Z 05003KT 10SM CLR 35/M04 A2985 RMK AO2 SLP081 T03501044 10356 20300 56013
KLAS 210056Z 02006KT 10SM CLR 34/M04 A2985 RMK AO2 SLP082 T03441039
KLAS 210156Z 04006KT 10SM CLR 33/M04 A2985 RMK AO2 SLP085 T03281039
KLAS 210256Z 04005KT 10SM CLR 32/M04 A2988 RMK AO2 SLP092 T03221039 53009
KLAS 210356Z 28006KT 10SM CLR 28/01 A2990 RMK AO2 SLP099 T02830006
KLAS 210456Z 25003KT 10SM CLR 28/M02 A2991 RMK AO2 SLP104 T02831017
KLAS 210556Z 00000KT 10SM CLR 28/M03 A2992 RMK AO2 SLP104 T02781033 10350 20272 51012
KLAS 210656Z 33004KT 10SM CLR 26/M03 A2992 RMK AO2 SLP107 T02611033
KLAS 210756Z 21005KT 10SM CLR 25/M04 A2993 RMK AO2 SLP111 T02501039 403560206
KLAS 210856Z 21005KT 10SM CLR 25/M04 A2994 RMK AO2 SLP111 T02501044 51006
KLAS 210956Z 23003KT 10SM CLR 24/M03 A2994 RMK AO2 SLP113 T02441028
KLAS 211056Z 02004KT 10SM CLR 23/01 A2995 RMK AO2 SLP117 T02330006



Page loaded:  11:27 UTC  |   04:27 AM Pacific  |   05:27 AM Mountain  |   06:27 AM Central  |   07:27 AM Eastern

 

ADVISORIES

FORECASTS

FORECASTS

OBSERVATIONS

USER TOOLS

ABOUT US